sensor_id;sensor_type;location;lat;lon;timestamp;P1;durP1;ratioP1;P2;durP2;ratioP2
9422;SDS011;65863;49.506;10.400;2023-04-25T00:02:20;3.67;;;3.37;;
9422;SDS011;65863;49.506;10.400;2023-04-25T00:05:04;3.60;;;3.30;;
9422;SDS011;65863;49.506;10.400;2023-04-25T00:07:49;3.50;;;3.20;;
9422;SDS011;65863;49.506;10.400;2023-04-25T00:10:33;4.17;;;3.37;;
9422;SDS011;65863;49.506;10.400;2023-04-25T00:13:17;3.63;;;3.33;;
9422;SDS011;65863;49.506;10.400;2023-04-25T00:16:01;4.33;;;3.33;;
9422;SDS011;65863;49.506;10.400;2023-04-25T00:18:46;3.67;;;3.37;;
9422;SDS011;65863;49.506;10.400;2023-04-25T00:21:34;6.07;;;3.30;;
9422;SDS011;65863;49.506;10.400;2023-04-25T00:24:19;3.13;;;2.90;;
9422;SDS011;65863;49.506;10.400;2023-04-25T00:27:03;3.73;;;3.43;;
9422;SDS011;65863;49.506;10.400;2023-04-25T00:29:47;3.80;;;3.40;;
9422;SDS011;65863;49.506;10.400;2023-04-25T00:32:31;3.17;;;2.87;;
9422;SDS011;65863;49.506;10.400;2023-04-25T00:35:15;3.50;;;3.20;;
9422;SDS011;65863;49.506;10.400;2023-04-25T00:37:59;4.73;;;3.10;;
9422;SDS011;65863;49.506;10.400;2023-04-25T00:40:43;4.30;;;3.17;;
9422;SDS011;65863;49.506;10.400;2023-04-25T00:43:27;3.57;;;3.27;;
9422;SDS011;65863;49.506;10.400;2023-04-25T00:46:13;3.73;;;3.07;;
9422;SDS011;65863;49.506;10.400;2023-04-25T00:48:57;3.17;;;2.87;;
9422;SDS011;65863;49.506;10.400;2023-04-25T00:51:41;3.40;;;3.10;;
9422;SDS011;65863;49.506;10.400;2023-04-25T00:54:27;3.30;;;3.00;;
9422;SDS011;65863;49.506;10.400;2023-04-25T00:57:11;4.20;;;3.37;;
9422;SDS011;65863;49.506;10.400;2023-04-25T00:59:55;3.30;;;3.00;;
9422;SDS011;65863;49.506;10.400;2023-04-25T01:02:40;5.40;;;3.40;;
9422;SDS011;65863;49.506;10.400;2023-04-25T01:05:25;4.03;;;3.40;;
9422;SDS011;65863;49.506;10.400;2023-04-25T01:08:09;4.20;;;3.80;;
9422;SDS011;65863;49.506;10.400;2023-04-25T01:10:54;3.73;;;3.40;;
9422;SDS011;65863;49.506;10.400;2023-04-25T01:13:38;4.20;;;3.80;;
9422;SDS011;65863;49.506;10.400;2023-04-25T01:16:22;4.27;;;3.43;;
9422;SDS011;65863;49.506;10.400;2023-04-25T01:19:08;3.90;;;3.60;;
9422;SDS011;65863;49.506;10.400;2023-04-25T01:21:56;4.10;;;3.77;;
9422;SDS011;65863;49.506;10.400;2023-04-25T01:24:40;3.57;;;3.27;;
9422;SDS011;65863;49.506;10.400;2023-04-25T01:27:24;4.10;;;3.70;;
9422;SDS011;65863;49.506;10.400;2023-04-25T01:30:09;3.67;;;3.23;;
9422;SDS011;65863;49.506;10.400;2023-04-25T01:32:54;4.20;;;3.80;;
9422;SDS011;65863;49.506;10.400;2023-04-25T01:35:40;4.40;;;4.00;;
9422;SDS011;65863;49.506;10.400;2023-04-25T01:38:24;4.03;;;3.50;;
9422;SDS011;65863;49.506;10.400;2023-04-25T01:41:08;4.37;;;3.63;;
9422;SDS011;65863;49.506;10.400;2023-04-25T01:43:53;4.60;;;3.90;;
9422;SDS011;65863;49.506;10.400;2023-04-25T01:46:37;8.93;;;4.53;;
9422;SDS011;65863;49.506;10.400;2023-04-25T01:49:22;5.80;;;4.07;;
9422;SDS011;65863;49.506;10.400;2023-04-25T01:52:07;4.93;;;4.43;;
9422;SDS011;65863;49.506;10.400;2023-04-25T01:54:51;4.90;;;4.43;;
9422;SDS011;65863;49.506;10.400;2023-04-25T01:57:35;4.70;;;4.30;;
9422;SDS011;65863;49.506;10.400;2023-04-25T02:00:20;5.00;;;4.20;;
9422;SDS011;65863;49.506;10.400;2023-04-25T02:03:06;4.93;;;4.40;;
9422;SDS011;65863;49.506;10.400;2023-04-25T02:05:52;5.17;;;4.50;;
9422;SDS011;65863;49.506;10.400;2023-04-25T02:08:37;8.43;;;4.60;;
9422;SDS011;65863;49.506;10.400;2023-04-25T02:11:21;5.47;;;4.20;;
9422;SDS011;65863;49.506;10.400;2023-04-25T02:14:27;6.83;;;5.47;;
9422;SDS011;65863;49.506;10.400;2023-04-25T02:17:26;5.00;;;4.60;;
9422;SDS011;65863;49.506;10.400;2023-04-25T02:20:10;5.50;;;5.00;;
9422;SDS011;65863;49.506;10.400;2023-04-25T02:22:57;6.07;;;5.10;;
9422;SDS011;65863;49.506;10.400;2023-04-25T02:25:41;5.40;;;4.60;;
9422;SDS011;65863;49.506;10.400;2023-04-25T02:28:25;5.90;;;5.30;;
9422;SDS011;65863;49.506;10.400;2023-04-25T02:31:10;6.70;;;5.33;;
9422;SDS011;65863;49.506;10.400;2023-04-25T02:33:53;6.37;;;5.53;;
9422;SDS011;65863;49.506;10.400;2023-04-25T02:36:37;6.60;;;5.37;;
9422;SDS011;65863;49.506;10.400;2023-04-25T02:39:21;6.03;;;5.40;;
9422;SDS011;65863;49.506;10.400;2023-04-25T02:42:07;6.67;;;5.60;;
9422;SDS011;65863;49.506;10.400;2023-04-25T02:44:51;6.10;;;5.50;;
9422;SDS011;65863;49.506;10.400;2023-04-25T02:47:35;6.37;;;5.43;;
9422;SDS011;65863;49.506;10.400;2023-04-25T02:50:19;6.67;;;5.70;;
9422;SDS011;65863;49.506;10.400;2023-04-25T02:53:03;6.33;;;5.37;;
9422;SDS011;65863;49.506;10.400;2023-04-25T02:55:53;6.37;;;5.70;;
9422;SDS011;65863;49.506;10.400;2023-04-25T02:58:38;6.13;;;5.53;;
9422;SDS011;65863;49.506;10.400;2023-04-25T03:01:21;6.93;;;5.80;;
9422;SDS011;65863;49.506;10.400;2023-04-25T03:04:05;6.43;;;5.40;;
9422;SDS011;65863;49.506;10.400;2023-04-25T03:06:50;6.77;;;5.67;;
9422;SDS011;65863;49.506;10.400;2023-04-25T03:09:34;6.83;;;5.87;;
9422;SDS011;65863;49.506;10.400;2023-04-25T03:12:18;6.37;;;5.77;;
9422;SDS011;65863;49.506;10.400;2023-04-25T03:15:03;6.00;;;5.50;;
9422;SDS011;65863;49.506;10.400;2023-04-25T03:17:48;6.43;;;4.83;;
9422;SDS011;65863;49.506;10.400;2023-04-25T03:20:32;7.30;;;5.97;;
9422;SDS011;65863;49.506;10.400;2023-04-25T03:23:16;5.40;;;4.90;;
9422;SDS011;65863;49.506;10.400;2023-04-25T03:26:00;6.47;;;5.80;;
9422;SDS011;65863;49.506;10.400;2023-04-25T03:28:44;6.67;;;5.97;;
9422;SDS011;65863;49.506;10.400;2023-04-25T03:31:28;6.30;;;5.70;;
9422;SDS011;65863;49.506;10.400;2023-04-25T03:34:11;6.73;;;5.67;;
9422;SDS011;65863;49.506;10.400;2023-04-25T03:36:58;6.40;;;5.80;;
9422;SDS011;65863;49.506;10.400;2023-04-25T03:39:42;6.00;;;5.40;;
9422;SDS011;65863;49.506;10.400;2023-04-25T03:42:27;7.27;;;5.70;;
9422;SDS011;65863;49.506;10.400;2023-04-25T03:45:11;6.77;;;5.83;;
9422;SDS011;65863;49.506;10.400;2023-04-25T03:47:54;7.10;;;6.40;;
9422;SDS011;65863;49.506;10.400;2023-04-25T03:50:38;7.07;;;6.37;;
9422;SDS011;65863;49.506;10.400;2023-04-25T03:53:23;7.17;;;5.47;;
9422;SDS011;65863;49.506;10.400;2023-04-25T03:56:26;6.60;;;6.00;;
9422;SDS011;65863;49.506;10.400;2023-04-25T03:59:18;5.90;;;5.33;;
9422;SDS011;65863;49.506;10.400;2023-04-25T04:02:02;6.23;;;5.63;;
9422;SDS011;65863;49.506;10.400;2023-04-25T04:04:47;6.50;;;5.67;;
9422;SDS011;65863;49.506;10.400;2023-04-25T04:07:31;6.33;;;5.73;;
9422;SDS011;65863;49.506;10.400;2023-04-25T04:10:17;6.33;;;5.67;;
9422;SDS011;65863;49.506;10.400;2023-04-25T04:13:01;6.60;;;5.87;;
9422;SDS011;65863;49.506;10.400;2023-04-25T04:15:45;6.77;;;6.13;;
9422;SDS011;65863;49.506;10.400;2023-04-25T04:18:30;6.67;;;5.90;;
9422;SDS011;65863;49.506;10.400;2023-04-25T04:21:15;6.00;;;5.40;;
9422;SDS011;65863;49.506;10.400;2023-04-25T04:23:59;6.80;;;5.90;;
9422;SDS011;65863;49.506;10.400;2023-04-25T04:26:46;6.47;;;5.87;;
9422;SDS011;65863;49.506;10.400;2023-04-25T04:29:53;6.53;;;5.93;;
9422;SDS011;65863;49.506;10.400;2023-04-25T04:32:47;9.53;;;6.07;;
9422;SDS011;65863;49.506;10.400;2023-04-25T04:35:32;6.30;;;5.70;;
9422;SDS011;65863;49.506;10.400;2023-04-25T04:38:16;6.70;;;6.00;;
9422;SDS011;65863;49.506;10.400;2023-04-25T04:41:00;6.63;;;5.93;;
9422;SDS011;65863;49.506;10.400;2023-04-25T04:44:06;7.17;;;6.33;;
9422;SDS011;65863;49.506;10.400;2023-04-25T04:47:00;7.27;;;6.50;;
9422;SDS011;65863;49.506;10.400;2023-04-25T04:50:10;7.27;;;5.80;;
9422;SDS011;65863;49.506;10.400;2023-04-25T04:53:13;6.47;;;5.83;;
9422;SDS011;65863;49.506;10.400;2023-04-25T04:56:17;5.77;;;5.27;;
9422;SDS011;65863;49.506;10.400;2023-04-25T04:59:12;6.23;;;5.63;;
9422;SDS011;65863;49.506;10.400;2023-04-25T05:02:16;6.47;;;5.87;;
9422;SDS011;65863;49.506;10.400;2023-04-25T05:05:16;5.67;;;5.17;;
9422;SDS011;65863;49.506;10.400;2023-04-25T05:08:28;6.10;;;5.50;;
9422;SDS011;65863;49.506;10.400;2023-04-25T05:11:31;6.57;;;5.97;;
9422;SDS011;65863;49.506;10.400;2023-04-25T05:14:34;6.40;;;5.60;;
9422;SDS011;65863;49.506;10.400;2023-04-25T05:17:33;8.87;;;6.37;;
9422;SDS011;65863;49.506;10.400;2023-04-25T05:20:28;6.27;;;5.67;;
9422;SDS011;65863;49.506;10.400;2023-04-25T05:23:27;8.47;;;5.90;;
9422;SDS011;65863;49.506;10.400;2023-04-25T05:26:29;7.13;;;6.30;;
9422;SDS011;65863;49.506;10.400;2023-04-25T05:29:33;7.00;;;6.30;;
9422;SDS011;65863;49.506;10.400;2023-04-25T05:32:23;7.10;;;6.00;;
9422;SDS011;65863;49.506;10.400;2023-04-25T05:35:09;6.37;;;5.73;;
9422;SDS011;65863;49.506;10.400;2023-04-25T05:38:00;8.20;;;6.13;;
9422;SDS011;65863;49.506;10.400;2023-04-25T05:41:07;7.23;;;6.23;;
9422;SDS011;65863;49.506;10.400;2023-04-25T05:44:00;7.50;;;6.20;;
9422;SDS011;65863;49.506;10.400;2023-04-25T05:47:03;6.70;;;5.87;;
9422;SDS011;65863;49.506;10.400;2023-04-25T05:50:02;6.30;;;5.70;;
9422;SDS011;65863;49.506;10.400;2023-04-25T05:53:05;7.53;;;5.73;;
9422;SDS011;65863;49.506;10.400;2023-04-25T05:55:55;6.23;;;5.63;;
9422;SDS011;65863;49.506;10.400;2023-04-25T05:58:42;6.87;;;5.50;;
9422;SDS011;65863;49.506;10.400;2023-04-25T06:01:28;6.20;;;5.30;;
9422;SDS011;65863;49.506;10.400;2023-04-25T06:04:12;7.30;;;5.50;;
9422;SDS011;65863;49.506;10.400;2023-04-25T06:06:56;5.63;;;5.13;;
9422;SDS011;65863;49.506;10.400;2023-04-25T06:09:40;5.83;;;5.10;;
9422;SDS011;65863;49.506;10.400;2023-04-25T06:12:25;5.97;;;5.23;;
9422;SDS011;65863;49.506;10.400;2023-04-25T06:15:11;5.30;;;4.70;;
9422;SDS011;65863;49.506;10.400;2023-04-25T06:17:55;6.17;;;5.00;;
9422;SDS011;65863;49.506;10.400;2023-04-25T06:20:40;4.97;;;4.47;;
9422;SDS011;65863;49.506;10.400;2023-04-25T06:23:24;5.23;;;4.43;;
9422;SDS011;65863;49.506;10.400;2023-04-25T06:26:14;5.73;;;4.60;;
9422;SDS011;65863;49.506;10.400;2023-04-25T06:29:01;5.20;;;4.70;;
9422;SDS011;65863;49.506;10.400;2023-04-25T06:31:46;5.67;;;5.03;;
9422;SDS011;65863;49.506;10.400;2023-04-25T06:34:30;9.17;;;5.43;;
9422;SDS011;65863;49.506;10.400;2023-04-25T06:37:15;4.47;;;4.07;;
9422;SDS011;65863;49.506;10.400;2023-04-25T06:39:59;4.80;;;4.40;;
9422;SDS011;65863;49.506;10.400;2023-04-25T06:42:43;4.63;;;3.63;;
9422;SDS011;65863;49.506;10.400;2023-04-25T06:45:46;7.70;;;4.33;;
9422;SDS011;65863;49.506;10.400;2023-04-25T06:48:30;4.77;;;4.13;;
9422;SDS011;65863;49.506;10.400;2023-04-25T06:51:15;4.50;;;4.10;;
9422;SDS011;65863;49.506;10.400;2023-04-25T06:54:01;4.63;;;4.20;;
9422;SDS011;65863;49.506;10.400;2023-04-25T06:56:53;5.03;;;4.40;;
9422;SDS011;65863;49.506;10.400;2023-04-25T06:59:37;5.00;;;4.50;;
9422;SDS011;65863;49.506;10.400;2023-04-25T07:02:21;4.33;;;3.93;;
9422;SDS011;65863;49.506;10.400;2023-04-25T07:05:08;4.70;;;4.27;;
9422;SDS011;65863;49.506;10.400;2023-04-25T07:07:52;6.20;;;4.20;;
9422;SDS011;65863;49.506;10.400;2023-04-25T07:10:36;4.17;;;3.77;;
9422;SDS011;65863;49.506;10.400;2023-04-25T07:13:20;4.20;;;3.80;;
9422;SDS011;65863;49.506;10.400;2023-04-25T07:16:05;4.23;;;3.83;;
9422;SDS011;65863;49.506;10.400;2023-04-25T07:18:51;3.47;;;3.13;;
9422;SDS011;65863;49.506;10.400;2023-04-25T07:21:36;3.73;;;3.30;;
9422;SDS011;65863;49.506;10.400;2023-04-25T07:24:21;4.93;;;3.40;;
9422;SDS011;65863;49.506;10.400;2023-04-25T07:27:06;5.27;;;3.50;;
9422;SDS011;65863;49.506;10.400;2023-04-25T07:30:09;4.50;;;3.47;;
9422;SDS011;65863;49.506;10.400;2023-04-25T07:32:56;4.53;;;3.67;;
9422;SDS011;65863;49.506;10.400;2023-04-25T07:35:41;7.03;;;3.43;;
9422;SDS011;65863;49.506;10.400;2023-04-25T07:38:25;4.90;;;3.83;;
9422;SDS011;65863;49.506;10.400;2023-04-25T07:41:09;5.90;;;5.10;;
9422;SDS011;65863;49.506;10.400;2023-04-25T07:43:53;7.30;;;5.80;;
9422;SDS011;65863;49.506;10.400;2023-04-25T07:46:38;7.10;;;5.97;;
9422;SDS011;65863;49.506;10.400;2023-04-25T07:49:23;7.00;;;6.30;;
9422;SDS011;65863;49.506;10.400;2023-04-25T07:52:07;6.80;;;6.00;;
9422;SDS011;65863;49.506;10.400;2023-04-25T07:54:53;6.67;;;6.03;;
9422;SDS011;65863;49.506;10.400;2023-04-25T07:57:44;7.57;;;6.40;;
9422;SDS011;65863;49.506;10.400;2023-04-25T08:00:28;6.53;;;5.57;;
9422;SDS011;65863;49.506;10.400;2023-04-25T08:03:30;7.33;;;5.53;;
9422;SDS011;65863;49.506;10.400;2023-04-25T08:06:16;10.13;;;6.20;;
9422;SDS011;65863;49.506;10.400;2023-04-25T08:09:08;8.27;;;6.47;;
9422;SDS011;65863;49.506;10.400;2023-04-25T08:11:57;6.67;;;5.97;;
9422;SDS011;65863;49.506;10.400;2023-04-25T08:14:46;7.17;;;5.90;;
9422;SDS011;65863;49.506;10.400;2023-04-25T08:17:30;7.47;;;5.90;;
9422;SDS011;65863;49.506;10.400;2023-04-25T08:20:14;6.63;;;5.00;;
9422;SDS011;65863;49.506;10.400;2023-04-25T08:22:59;5.40;;;4.73;;
9422;SDS011;65863;49.506;10.400;2023-04-25T08:26:06;5.33;;;4.83;;
9422;SDS011;65863;49.506;10.400;2023-04-25T08:28:54;6.97;;;4.87;;
9422;SDS011;65863;49.506;10.400;2023-04-25T08:31:39;6.23;;;5.03;;
9422;SDS011;65863;49.506;10.400;2023-04-25T08:34:24;4.83;;;3.87;;
9422;SDS011;65863;49.506;10.400;2023-04-25T08:37:10;5.40;;;3.63;;
9422;SDS011;65863;49.506;10.400;2023-04-25T08:39:58;5.63;;;3.90;;
9422;SDS011;65863;49.506;10.400;2023-04-25T08:42:58;5.70;;;4.13;;
9422;SDS011;65863;49.506;10.400;2023-04-25T08:45:44;5.27;;;3.77;;
9422;SDS011;65863;49.506;10.400;2023-04-25T08:48:36;5.93;;;3.57;;
9422;SDS011;65863;49.506;10.400;2023-04-25T08:51:22;6.77;;;3.93;;
9422;SDS011;65863;49.506;10.400;2023-04-25T08:54:09;7.07;;;3.97;;
9422;SDS011;65863;49.506;10.400;2023-04-25T08:56:55;5.97;;;4.07;;
9422;SDS011;65863;49.506;10.400;2023-04-25T08:59:41;4.53;;;3.67;;
9422;SDS011;65863;49.506;10.400;2023-04-25T09:02:29;7.17;;;3.47;;
9422;SDS011;65863;49.506;10.400;2023-04-25T09:05:13;4.70;;;3.33;;
9422;SDS011;65863;49.506;10.400;2023-04-25T09:07:58;5.37;;;3.87;;
9422;SDS011;65863;49.506;10.400;2023-04-25T09:10:42;4.10;;;3.70;;
9422;SDS011;65863;49.506;10.400;2023-04-25T09:13:27;5.23;;;3.30;;
9422;SDS011;65863;49.506;10.400;2023-04-25T09:16:57;6.60;;;3.93;;
9422;SDS011;65863;49.506;10.400;2023-04-25T09:20:05;2.93;;;2.63;;
9422;SDS011;65863;49.506;10.400;2023-04-25T09:23:03;5.10;;;2.83;;
9422;SDS011;65863;49.506;10.400;2023-04-25T09:25:52;6.40;;;3.10;;
9422;SDS011;65863;49.506;10.400;2023-04-25T09:28:37;7.73;;;3.20;;
9422;SDS011;65863;49.506;10.400;2023-04-25T09:31:22;5.20;;;3.03;;
9422;SDS011;65863;49.506;10.400;2023-04-25T09:34:09;6.47;;;3.17;;
9422;SDS011;65863;49.506;10.400;2023-04-25T09:37:02;3.10;;;2.60;;
9422;SDS011;65863;49.506;10.400;2023-04-25T09:40:11;4.33;;;2.10;;
9422;SDS011;65863;49.506;10.400;2023-04-25T09:46:08;5.20;;;2.80;;
9422;SDS011;65863;49.506;10.400;2023-04-25T09:48:56;2.67;;;2.47;;
9422;SDS011;65863;49.506;10.400;2023-04-25T09:51:53;3.43;;;2.50;;
9422;SDS011;65863;49.506;10.400;2023-04-25T09:54:44;4.77;;;2.80;;
9422;SDS011;65863;49.506;10.400;2023-04-25T09:57:36;3.47;;;2.43;;
9422;SDS011;65863;49.506;10.400;2023-04-25T10:00:24;3.07;;;2.00;;
9422;SDS011;65863;49.506;10.400;2023-04-25T10:03:09;3.57;;;2.30;;
9422;SDS011;65863;49.506;10.400;2023-04-25T10:06:19;4.73;;;2.87;;
9422;SDS011;65863;49.506;10.400;2023-04-25T10:09:04;6.13;;;2.50;;
9422;SDS011;65863;49.506;10.400;2023-04-25T10:11:48;4.67;;;2.70;;
9422;SDS011;65863;49.506;10.400;2023-04-25T10:14:34;5.07;;;2.63;;
9422;SDS011;65863;49.506;10.400;2023-04-25T10:17:19;4.67;;;2.73;;
9422;SDS011;65863;49.506;10.400;2023-04-25T10:20:04;3.70;;;2.53;;
9422;SDS011;65863;49.506;10.400;2023-04-25T10:22:54;3.43;;;1.70;;
9422;SDS011;65863;49.506;10.400;2023-04-25T10:25:42;2.60;;;1.73;;
9422;SDS011;65863;49.506;10.400;2023-04-25T10:28:26;3.00;;;2.00;;
9422;SDS011;65863;49.506;10.400;2023-04-25T10:31:12;3.47;;;1.90;;
9422;SDS011;65863;49.506;10.400;2023-04-25T10:34:00;3.10;;;2.00;;
9422;SDS011;65863;49.506;10.400;2023-04-25T10:36:49;1.63;;;1.40;;
9422;SDS011;65863;49.506;10.400;2023-04-25T10:39:36;2.57;;;1.93;;
9422;SDS011;65863;49.506;10.400;2023-04-25T10:42:23;2.43;;;2.23;;
9422;SDS011;65863;49.506;10.400;2023-04-25T10:45:07;3.53;;;2.50;;
9422;SDS011;65863;49.506;10.400;2023-04-25T10:47:52;3.63;;;2.33;;
9422;SDS011;65863;49.506;10.400;2023-04-25T10:50:38;3.07;;;2.03;;
9422;SDS011;65863;49.506;10.400;2023-04-25T10:53:24;1.87;;;1.70;;
9422;SDS011;65863;49.506;10.400;2023-04-25T10:56:09;1.87;;;1.53;;
9422;SDS011;65863;49.506;10.400;2023-04-25T11:01:50;2.30;;;2.10;;
9422;SDS011;65863;49.506;10.400;2023-04-25T11:04:36;2.63;;;2.00;;
9422;SDS011;65863;49.506;10.400;2023-04-25T11:07:23;2.23;;;1.80;;
9422;SDS011;65863;49.506;10.400;2023-04-25T11:10:17;4.00;;;1.80;;
9422;SDS011;65863;49.506;10.400;2023-04-25T11:13:03;1.90;;;1.80;;
9422;SDS011;65863;49.506;10.400;2023-04-25T11:15:51;2.00;;;1.80;;
9422;SDS011;65863;49.506;10.400;2023-04-25T11:18:35;4.00;;;1.93;;
9422;SDS011;65863;49.506;10.400;2023-04-25T11:21:19;2.90;;;1.90;;
9422;SDS011;65863;49.506;10.400;2023-04-25T11:24:03;2.83;;;2.23;;
9422;SDS011;65863;49.506;10.400;2023-04-25T11:26:48;2.17;;;1.70;;
9422;SDS011;65863;49.506;10.400;2023-04-25T11:29:32;3.77;;;1.70;;
9422;SDS011;65863;49.506;10.400;2023-04-25T11:32:17;2.67;;;1.70;;
9422;SDS011;65863;49.506;10.400;2023-04-25T11:35:02;2.07;;;1.90;;
9422;SDS011;65863;49.506;10.400;2023-04-25T11:37:47;2.37;;;1.70;;
9422;SDS011;65863;49.506;10.400;2023-04-25T11:40:32;2.57;;;2.37;;
9422;SDS011;65863;49.506;10.400;2023-04-25T11:43:17;2.17;;;1.90;;
9422;SDS011;65863;49.506;10.400;2023-04-25T11:46:01;2.23;;;1.93;;
9422;SDS011;65863;49.506;10.400;2023-04-25T11:48:50;2.93;;;2.30;;
9422;SDS011;65863;49.506;10.400;2023-04-25T11:51:44;2.60;;;1.80;;
9422;SDS011;65863;49.506;10.400;2023-04-25T11:54:30;2.97;;;2.10;;
9422;SDS011;65863;49.506;10.400;2023-04-25T11:57:14;2.10;;;2.00;;
9422;SDS011;65863;49.506;10.400;2023-04-25T12:02:56;2.63;;;2.00;;
9422;SDS011;65863;49.506;10.400;2023-04-25T12:05:46;2.67;;;2.00;;
9422;SDS011;65863;49.506;10.400;2023-04-25T12:08:30;3.30;;;2.00;;
9422;SDS011;65863;49.506;10.400;2023-04-25T12:11:20;2.67;;;2.07;;
9422;SDS011;65863;49.506;10.400;2023-04-25T12:14:05;2.30;;;2.00;;
9422;SDS011;65863;49.506;10.400;2023-04-25T12:16:50;4.17;;;2.20;;
9422;SDS011;65863;49.506;10.400;2023-04-25T12:19:37;4.23;;;2.20;;
9422;SDS011;65863;49.506;10.400;2023-04-25T12:22:25;3.07;;;1.90;;
9422;SDS011;65863;49.506;10.400;2023-04-25T12:25:09;1.97;;;1.83;;
9422;SDS011;65863;49.506;10.400;2023-04-25T12:27:54;3.43;;;2.20;;
9422;SDS011;65863;49.506;10.400;2023-04-25T12:33:42;2.63;;;1.97;;
9422;SDS011;65863;49.506;10.400;2023-04-25T12:36:27;2.20;;;1.90;;
9422;SDS011;65863;49.506;10.400;2023-04-25T12:39:21;3.70;;;2.20;;
9422;SDS011;65863;49.506;10.400;2023-04-25T12:42:06;2.20;;;1.93;;
9422;SDS011;65863;49.506;10.400;2023-04-25T12:44:55;4.00;;;2.20;;
9422;SDS011;65863;49.506;10.400;2023-04-25T12:47:39;2.17;;;1.97;;
9422;SDS011;65863;49.506;10.400;2023-04-25T12:50:23;2.63;;;2.07;;
9422;SDS011;65863;49.506;10.400;2023-04-25T12:53:07;4.57;;;2.10;;
9422;SDS011;65863;49.506;10.400;2023-04-25T12:55:51;5.30;;;1.90;;
9422;SDS011;65863;49.506;10.400;2023-04-25T12:58:35;3.57;;;2.00;;
9422;SDS011;65863;49.506;10.400;2023-04-25T13:01:20;2.30;;;2.10;;
9422;SDS011;65863;49.506;10.400;2023-04-25T13:04:04;2.40;;;1.90;;
9422;SDS011;65863;49.506;10.400;2023-04-25T13:06:49;2.63;;;1.90;;
9422;SDS011;65863;49.506;10.400;2023-04-25T13:09:33;3.00;;;2.10;;
9422;SDS011;65863;49.506;10.400;2023-04-25T13:12:17;1.93;;;1.73;;
9422;SDS011;65863;49.506;10.400;2023-04-25T13:15:01;2.40;;;2.20;;
9422;SDS011;65863;49.506;10.400;2023-04-25T13:17:45;3.23;;;1.90;;
9422;SDS011;65863;49.506;10.400;2023-04-25T13:20:29;6.27;;;2.27;;
9422;SDS011;65863;49.506;10.400;2023-04-25T13:23:12;2.20;;;2.00;;
9422;SDS011;65863;49.506;10.400;2023-04-25T13:25:57;3.47;;;1.90;;
9422;SDS011;65863;49.506;10.400;2023-04-25T13:28:41;2.70;;;1.80;;
9422;SDS011;65863;49.506;10.400;2023-04-25T13:31:25;3.00;;;2.27;;
9422;SDS011;65863;49.506;10.400;2023-04-25T13:34:09;4.27;;;2.20;;
9422;SDS011;65863;49.506;10.400;2023-04-25T13:36:55;2.67;;;2.07;;
9422;SDS011;65863;49.506;10.400;2023-04-25T13:39:39;2.23;;;1.93;;
9422;SDS011;65863;49.506;10.400;2023-04-25T13:42:23;4.73;;;1.90;;
9422;SDS011;65863;49.506;10.400;2023-04-25T13:45:07;2.37;;;2.17;;
9422;SDS011;65863;49.506;10.400;2023-04-25T13:47:51;2.83;;;2.10;;
9422;SDS011;65863;49.506;10.400;2023-04-25T13:50:35;3.50;;;2.40;;
9422;SDS011;65863;49.506;10.400;2023-04-25T13:53:19;2.73;;;2.43;;
9422;SDS011;65863;49.506;10.400;2023-04-25T13:56:04;2.80;;;2.57;;
9422;SDS011;65863;49.506;10.400;2023-04-25T13:58:52;2.97;;;2.50;;
9422;SDS011;65863;49.506;10.400;2023-04-25T14:01:36;2.77;;;2.53;;
9422;SDS011;65863;49.506;10.400;2023-04-25T14:04:20;4.30;;;2.60;;
9422;SDS011;65863;49.506;10.400;2023-04-25T14:07:04;4.87;;;2.93;;
9422;SDS011;65863;49.506;10.400;2023-04-25T14:09:48;3.67;;;2.83;;
9422;SDS011;65863;49.506;10.400;2023-04-25T14:12:33;4.10;;;2.50;;
9422;SDS011;65863;49.506;10.400;2023-04-25T14:15:17;3.20;;;2.77;;
9422;SDS011;65863;49.506;10.400;2023-04-25T14:18:01;3.97;;;2.87;;
9422;SDS011;65863;49.506;10.400;2023-04-25T14:20:46;4.33;;;2.53;;
9422;SDS011;65863;49.506;10.400;2023-04-25T14:23:30;3.70;;;2.27;;
9422;SDS011;65863;49.506;10.400;2023-04-25T14:26:14;3.40;;;2.60;;
9422;SDS011;65863;49.506;10.400;2023-04-25T14:28:58;2.77;;;2.57;;
9422;SDS011;65863;49.506;10.400;2023-04-25T14:31:42;4.63;;;2.93;;
9422;SDS011;65863;49.506;10.400;2023-04-25T14:34:26;5.50;;;2.40;;
9422;SDS011;65863;49.506;10.400;2023-04-25T14:37:10;3.00;;;2.50;;
9422;SDS011;65863;49.506;10.400;2023-04-25T14:39:54;2.57;;;2.37;;
9422;SDS011;65863;49.506;10.400;2023-04-25T14:42:38;2.50;;;2.30;;
9422;SDS011;65863;49.506;10.400;2023-04-25T14:45:25;3.70;;;2.80;;
9422;SDS011;65863;49.506;10.400;2023-04-25T14:48:09;4.37;;;2.87;;
9422;SDS011;65863;49.506;10.400;2023-04-25T14:50:53;3.67;;;2.97;;
9422;SDS011;65863;49.506;10.400;2023-04-25T14:53:37;3.33;;;2.70;;
9422;SDS011;65863;49.506;10.400;2023-04-25T14:56:21;3.80;;;3.00;;
9422;SDS011;65863;49.506;10.400;2023-04-25T14:59:05;7.13;;;3.53;;
9422;SDS011;65863;49.506;10.400;2023-04-25T15:01:50;4.53;;;3.33;;
9422;SDS011;65863;49.506;10.400;2023-04-25T15:04:34;4.17;;;3.50;;
9422;SDS011;65863;49.506;10.400;2023-04-25T15:07:18;3.93;;;3.23;;
9422;SDS011;65863;49.506;10.400;2023-04-25T15:10:03;4.53;;;3.20;;
9422;SDS011;65863;49.506;10.400;2023-04-25T15:12:47;4.57;;;3.13;;
9422;SDS011;65863;49.506;10.400;2023-04-25T15:15:31;6.63;;;2.97;;
9422;SDS011;65863;49.506;10.400;2023-04-25T15:18:15;5.87;;;3.50;;
9422;SDS011;65863;49.506;10.400;2023-04-25T15:20:59;4.40;;;3.27;;
9422;SDS011;65863;49.506;10.400;2023-04-25T15:23:43;3.43;;;3.10;;
9422;SDS011;65863;49.506;10.400;2023-04-25T15:26:27;5.20;;;3.40;;
9422;SDS011;65863;49.506;10.400;2023-04-25T15:29:12;4.20;;;3.30;;
9422;SDS011;65863;49.506;10.400;2023-04-25T15:31:56;4.90;;;3.40;;
9422;SDS011;65863;49.506;10.400;2023-04-25T15:34:40;5.80;;;3.40;;
9422;SDS011;65863;49.506;10.400;2023-04-25T15:37:24;5.97;;;3.50;;
9422;SDS011;65863;49.506;10.400;2023-04-25T15:42:54;3.37;;;2.67;;
9422;SDS011;65863;49.506;10.400;2023-04-25T15:45:39;4.10;;;2.83;;
9422;SDS011;65863;49.506;10.400;2023-04-25T15:48:23;3.87;;;3.00;;
9422;SDS011;65863;49.506;10.400;2023-04-25T15:51:06;3.20;;;2.93;;
9422;SDS011;65863;49.506;10.400;2023-04-25T15:53:51;3.97;;;2.73;;
9422;SDS011;65863;49.506;10.400;2023-04-25T15:56:35;3.07;;;2.17;;
9422;SDS011;65863;49.506;10.400;2023-04-25T15:59:19;5.67;;;2.67;;
9422;SDS011;65863;49.506;10.400;2023-04-25T16:02:03;6.13;;;2.70;;
9422;SDS011;65863;49.506;10.400;2023-04-25T16:04:47;2.23;;;2.03;;
9422;SDS011;65863;49.506;10.400;2023-04-25T16:07:32;3.97;;;2.70;;
9422;SDS011;65863;49.506;10.400;2023-04-25T16:10:17;2.97;;;2.13;;
9422;SDS011;65863;49.506;10.400;2023-04-25T16:13:03;3.27;;;2.60;;
9422;SDS011;65863;49.506;10.400;2023-04-25T16:15:47;5.03;;;2.00;;
9422;SDS011;65863;49.506;10.400;2023-04-25T16:18:31;3.87;;;2.40;;
9422;SDS011;65863;49.506;10.400;2023-04-25T16:21:15;3.17;;;2.20;;
9422;SDS011;65863;49.506;10.400;2023-04-25T16:23:59;2.20;;;2.00;;
9422;SDS011;65863;49.506;10.400;2023-04-25T16:26:43;4.20;;;2.80;;
9422;SDS011;65863;49.506;10.400;2023-04-25T16:29:28;2.60;;;2.20;;
9422;SDS011;65863;49.506;10.400;2023-04-25T16:32:12;3.30;;;2.20;;
9422;SDS011;65863;49.506;10.400;2023-04-25T16:34:56;2.90;;;1.80;;
9422;SDS011;65863;49.506;10.400;2023-04-25T16:37:40;3.67;;;2.17;;
9422;SDS011;65863;49.506;10.400;2023-04-25T16:40:25;2.77;;;2.00;;
9422;SDS011;65863;49.506;10.400;2023-04-25T16:43:09;2.57;;;1.77;;
9422;SDS011;65863;49.506;10.400;2023-04-25T16:45:53;3.10;;;2.03;;
9422;SDS011;65863;49.506;10.400;2023-04-25T16:48:38;4.00;;;2.07;;
9422;SDS011;65863;49.506;10.400;2023-04-25T16:51:22;2.80;;;1.53;;
9422;SDS011;65863;49.506;10.400;2023-04-25T16:54:06;4.00;;;2.00;;
9422;SDS011;65863;49.506;10.400;2023-04-25T16:56:50;8.83;;;2.27;;
9422;SDS011;65863;49.506;10.400;2023-04-25T16:59:35;4.00;;;1.97;;
9422;SDS011;65863;49.506;10.400;2023-04-25T17:02:20;4.33;;;1.70;;